Terminal Aerodrome Forecast
Issued by NWS

Home | Current Version | Previous Version | Text Only | Print | Product List | Glossary On
Versions: 1 2 3 4 5 6 7 8 9 10 11 12 13 14 15 16 17
239
FTUS41 KBTV 241739 AAB
TAFMSS
TAF AMD
KMSS 241739Z 2418/2518 03009KT P6SM VCSH OVC015
     FM242000 05010KT P6SM VCSH OVC015
     FM250000 04012KT P6SM SCT008 BKN012
     FM250800 08009KT P6SM SCT015 BKN035
     FM251100 11008KT P6SM SCT020 BKN045
     FM251500 15012G20KT P6SM VCSH SCT020 BKN035 OVC050=

USA.gov is the U.S. government's official web portal to all federal, state and local government web resources and services.